Time;durP1;ratioP1;P1;durP2;ratioP2;P2;SDS_P1;SDS_P2;PMS_P1;PMS_P2;Temp;Humidity;BMP_temperature;BMP_pressure;BME280_temperature;BME280_humidity;BME280_pressure;Samples;Min_cycle;Max_cycle;Signal;HPM_P1;HPM_P2
2023/01/24 00:02:25;;;;;;;12.33;10.07;;;3.30;96.70;;;;;;5089485;28;20191;-90
2023/01/24 00:04:50;;;;;;;11.23;9.90;;;3.20;96.80;;;;;;5088661;28;20176;-89
2023/01/24 00:07:16;;;;;;;10.57;9.30;;;3.30;96.40;;;;;;5070226;28;20183;-89
2023/01/24 00:09:42;;;;;;;10.47;9.27;;;3.20;96.80;;;;;;5087502;28;20176;-89
2023/01/24 00:12:08;;;;;;;12.77;10.40;;;3.20;96.70;;;;;;5087967;28;20194;-89
2023/01/24 00:14:33;;;;;;;12.20;10.53;;;3.20;96.90;;;;;;5068541;28;20263;-89
2023/01/24 00:16:59;;;;;;;11.93;9.63;;;3.30;96.90;;;;;;5056504;28;20175;-89
2023/01/24 00:19:25;;;;;;;11.00;9.03;;;3.20;96.50;;;;;;5087095;28;20215;-89
2023/01/24 00:21:51;;;;;;;12.43;8.83;;;3.20;96.50;;;;;;5088952;28;20176;-89
2023/01/24 00:24:16;;;;;;;11.50;9.23;;;3.10;97.30;;;;;;5071059;28;20214;-89
2023/01/24 00:26:42;;;;;;;10.40;9.20;;;3.10;96.90;;;;;;5088412;28;20184;-89
2023/01/24 00:29:08;;;;;;;11.07;8.77;;;3.20;97.00;;;;;;5070522;28;20223;-88
2023/01/24 00:31:33;;;;;;;11.93;9.03;;;3.10;97.20;;;;;;5089122;28;20176;-89
2023/01/24 00:34:00;;;;;;;13.27;10.10;;;3.10;97.30;;;;;;5089447;28;20179;-89
2023/01/24 00:36:26;;;;;;;11.60;9.43;;;3.10;97.00;;;;;;5091142;28;20171;-89
2023/01/24 00:38:54;;;;;;;11.00;9.37;;;3.10;97.10;;;;;;5072024;28;20211;-90
2023/01/24 00:41:20;;;;;;;10.63;9.30;;;3.10;96.90;;;;;;5092470;28;20168;-89
2023/01/24 00:43:46;;;;;;;11.10;9.00;;;3.10;96.70;;;;;;5095480;28;20203;-91
2023/01/24 00:46:33;;;;;;;12.00;9.60;;;3.10;96.80;;;;;;5170800;22;20251;-92
2023/01/24 00:49:17;;;;;;;9.83;8.83;;;3.10;97.00;;;;;;5042885;28;20197;-91
2023/01/24 00:51:52;;;;;;;11.10;8.77;;;3.10;96.60;;;;;;5062370;28;20259;-91
2023/01/24 00:54:35;;;;;;;11.33;9.10;;;3.10;97.00;;;;;;5040948;28;20270;-91
2023/01/24 00:57:24;;;;;;;11.07;8.53;;;3.10;96.90;;;;;;5040772;28;20218;-91
2023/01/24 01:00:15;;;;;;;;;;;;;;;;;;;;;
2023/01/24 01:02:53;;;;;;;10.17;9.03;;;3.10;98.00;;;;;;5027841;28;20261;-93
2023/01/24 01:05:22;;;;;;;9.77;8.50;;;3.10;96.90;;;;;;5057573;28;20175;-91
2023/01/24 01:08:21;;;;;;;11.00;8.47;;;3.10;96.90;;;;;;5025667;28;20180;-92
2023/01/24 01:10:51;;;;;;;11.03;9.30;;;3.00;97.00;;;;;;5029203;28;20209;-91
2023/01/24 01:13:23;;;;;;;9.83;8.40;;;3.00;97.10;;;;;;5056157;28;20183;-91
2023/01/24 01:16:21;;;;;;;10.97;8.63;;;3.00;97.30;;;;;;5057819;28;20840;-90
2023/01/24 01:18:56;;;;;;;9.83;8.10;;;3.00;97.30;;;;;;5042255;28;20703;-91
2023/01/24 01:21:44;;;;;;;10.77;8.17;;;3.00;97.10;;;;;;5039866;28;20341;-91
2023/01/24 01:24:10;;;;;;;11.43;8.50;;;3.00;96.60;;;;;;5040922;28;20586;-91
2023/01/24 01:26:50;;;;;;;9.50;8.20;;;3.00;97.00;;;;;;5040563;28;20191;-92
2023/01/24 01:29:30;;;;;;;11.67;8.57;;;3.00;97.10;;;;;;5040999;28;20224;-91
2023/01/24 01:32:18;;;;;;;9.67;8.30;;;3.00;97.10;;;;;;5034964;28;20234;-92
2023/01/24 01:35:01;;;;;;;11.03;8.67;;;3.00;97.00;;;;;;5029588;28;20761;-91
2023/01/24 01:37:40;;;;;;;11.97;8.60;;;3.00;97.10;;;;;;5047883;28;20169;-91
2023/01/24 01:40:10;;;;;;;11.30;9.27;;;3.00;96.80;;;;;;5030804;28;20211;-92
2023/01/24 01:42:56;;;;;;;10.83;8.97;;;3.00;96.80;;;;;;5011014;28;20280;-91
2023/01/24 01:45:55;;;;;;;10.37;8.83;;;3.00;96.50;;;;;;5024478;28;20355;-91
2023/01/24 01:48:38;;;;;;;9.70;8.60;;;3.00;96.40;;;;;;5047316;28;20180;-91
2023/01/24 01:51:41;;;;;;;11.30;9.33;;;3.00;96.50;;;;;;5031381;28;20623;-91
2023/01/24 01:54:26;;;;;;;10.50;9.27;;;3.00;96.70;;;;;;5035477;28;20226;-92
2023/01/24 01:57:06;;;;;;;10.40;8.57;;;3.00;96.60;;;;;;5030286;28;20458;-91
2023/01/24 01:59:49;;;;;;;10.17;8.33;;;3.00;96.20;;;;;;5045676;28;20226;-92
2023/01/24 02:02:19;;;;;;;11.30;9.33;;;3.00;96.90;;;;;;5026494;28;20184;-90
2023/01/24 02:04:55;;;;;;;10.53;9.07;;;3.00;96.50;;;;;;5020753;28;20168;-91
2023/01/24 02:07:49;;;;;;;11.30;8.97;;;3.00;96.70;;;;;;5024153;28;20184;-91
2023/01/24 02:13:34;;;;;;;8.53;7.63;;;3.00;96.40;;;;;;5047111;28;20663;-91
2023/01/24 02:16:09;;;;;;;10.00;8.43;;;3.00;96.60;;;;;;5007870;28;20189;-91
2023/01/24 02:18:46;;;;;;;10.53;8.27;;;3.00;96.50;;;;;;5028543;28;20253;-92
2023/01/24 02:21:18;;;;;;;10.73;8.67;;;3.00;96.40;;;;;;5030833;28;20195;-90
2023/01/24 02:24:08;;;;;;;10.87;9.07;;;3.00;96.80;;;;;;5048954;28;20173;-91
2023/01/24 02:26:48;;;;;;;11.20;9.07;;;3.00;97.20;;;;;;5030556;28;20215;-91
2023/01/24 02:29:42;;;;;;;10.13;9.03;;;2.90;97.50;;;;;;5014322;28;20200;-91
2023/01/24 02:32:18;;;;;;;11.40;9.10;;;2.90;97.00;;;;;;5031796;28;20189;-91
2023/01/24 02:34:49;;;;;;;10.67;9.00;;;3.00;97.20;;;;;;5025308;28;20195;-90
2023/01/24 02:40:11;;;;;;;10.60;9.03;;;3.00;97.00;;;;;;5030413;28;20305;-91
2023/01/24 02:42:54;;;;;;;11.27;9.07;;;3.00;97.20;;;;;;5029120;28;20841;-91
2023/01/24 02:45:37;;;;;;;10.90;8.70;;;3.00;97.00;;;;;;5013336;28;20208;-91
2023/01/24 02:48:11;;;;;;;12.23;9.50;;;3.00;97.20;;;;;;5031994;28;20687;-93
2023/01/24 02:53:35;;;;;;;9.73;8.43;;;2.90;97.80;;;;;;5051927;28;20167;-91
2023/01/24 02:58:54;;;;;;;12.03;9.17;;;2.90;98.20;;;;;;5040756;28;20236;-90
2023/01/24 03:01:32;;;;;;;11.80;9.50;;;2.90;98.10;;;;;;5029033;28;20189;-91
2023/01/24 03:04:18;;;;;;;12.10;9.33;;;2.90;98.10;;;;;;5011771;28;20180;-90
2023/01/24 03:06:52;;;;;;;14.03;10.60;;;2.90;97.60;;;;;;5038524;28;20176;-91
2023/01/24 03:09:33;;;;;;;9.80;8.57;;;3.00;98.20;;;;;;5048835;28;20208;-90
2023/01/24 03:36:41;;;;;;;11.53;9.10;;;2.90;98.30;;;;;;5046184;28;20691;-91
2023/01/24 03:41:55;;;;;;;10.53;8.57;;;3.00;98.50;;;;;;5050973;28;20186;-91
2023/01/24 03:44:21;;;;;;;11.83;9.30;;;3.00;98.20;;;;;;5050933;28;20210;-91
2023/01/24 03:46:47;;;;;;;11.23;9.03;;;3.00;98.10;;;;;;5032311;28;20192;-90
2023/01/24 03:49:13;;;;;;;11.83;9.37;;;2.90;98.50;;;;;;5051190;28;20572;-91
2023/01/24 03:54:39;;;;;;;11.43;9.37;;;2.90;98.50;;;;;;5047132;28;20627;-92
2023/01/24 03:57:16;;;;;;;12.30;9.90;;;3.00;98.30;;;;;;5038510;28;20169;-91
2023/01/24 03:59:47;;;;;;;12.13;8.90;;;3.00;98.10;;;;;;5026872;28;20244;-92
2023/01/24 04:02:19;;;;;;;11.93;9.07;;;2.90;99.10;;;;;;5054864;28;20246;-91
2023/01/24 04:08:10;;;;;;;9.73;7.97;;;2.90;98.70;;;;;;5030102;28;20645;-91
2023/01/24 04:10:43;;;;;;;9.20;8.20;;;2.90;98.80;;;;;;5012884;28;20192;-90
2023/01/24 04:13:26;;;;;;;10.70;8.57;;;2.90;98.50;;;;;;5047609;28;20299;-91
2023/01/24 04:16:07;;;;;;;10.50;9.13;;;3.00;98.60;;;;;;5043753;28;20196;-91
2023/01/24 04:18:48;;;;;;;13.23;9.43;;;2.90;98.80;;;;;;5031162;28;20213;-91
2023/01/24 04:21:25;;;;;;;11.40;9.10;;;3.00;98.70;;;;;;5017863;28;20595;-91
2023/01/24 04:24:04;;;;;;;;;;;;;;;;;;;;;
2023/01/24 04:26:38;;;;;;;11.23;8.90;;;3.00;98.80;;;;;;5027191;28;20868;-91
2023/01/24 04:29:16;;;;;;;12.67;9.93;;;2.90;98.90;;;;;;5017001;28;20212;-91
2023/01/24 04:31:52;;;;;;;10.70;8.73;;;2.90;99.00;;;;;;5035705;28;20157;-92
2023/01/24 04:34:18;;;;;;;11.03;8.93;;;2.90;99.10;;;;;;5030242;28;20231;-91
2023/01/24 04:37:14;;;;;;;11.50;9.40;;;3.00;99.00;;;;;;5054064;28;20215;-91
2023/01/24 04:40:31;;;;;;;13.83;9.63;;;3.00;99.00;;;;;;5036820;28;20219;-91
2023/01/24 04:42:57;;;;;;;10.60;8.83;;;3.00;98.50;;;;;;5035238;28;20200;-91
2023/01/24 04:45:37;;;;;;;11.03;9.50;;;3.00;98.60;;;;;;5017833;28;20208;-92
2023/01/24 04:48:36;;;;;;;10.83;9.70;;;3.00;98.60;;;;;;5030289;28;20195;-92
2023/01/24 04:52:29;;;;;;;13.53;10.37;;;3.00;98.40;;;;;;5036937;28;20197;-91
2023/01/24 04:54:41;;;;;;;11.60;9.03;;;3.00;98.90;;;;;;5021084;28;20197;-91
2023/01/24 04:57:27;;;;;;;;;;;;;;;;;;;;;
2023/01/24 05:00:06;;;;;;;13.13;9.70;;;3.00;98.70;;;;;;5025138;28;20311;-93
2023/01/24 05:02:32;;;;;;;13.43;10.27;;;3.00;98.30;;;;;;5034179;28;20211;-92
2023/01/24 05:05:00;;;;;;;14.27;10.60;;;3.00;98.30;;;;;;5056363;28;20702;-92
2023/01/24 05:07:31;;;;;;;13.80;11.50;;;3.00;98.60;;;;;;5055208;28;20187;-91
2023/01/24 05:09:57;;;;;;;14.10;12.60;;;3.00;98.40;;;;;;5095524;23;20257;-88
2023/01/24 05:12:23;;;;;;;10.67;9.53;;;3.00;98.70;;;;;;5099875;28;20888;-88
2023/01/24 05:14:48;;;;;;;12.70;9.77;;;3.00;98.50;;;;;;5082792;28;20259;-89
2023/01/24 05:17:14;;;;;;;11.27;9.20;;;3.00;98.70;;;;;;5099461;28;20676;-88
2023/01/24 05:19:40;;;;;;;12.50;10.10;;;3.10;98.20;;;;;;5094106;28;20199;-91
2023/01/24 05:22:05;;;;;;;11.67;9.27;;;3.10;98.30;;;;;;5084649;28;20563;-89
2023/01/24 05:24:31;;;;;;;12.87;9.60;;;3.00;98.20;;;;;;5084388;28;20198;-85
2023/01/24 05:26:56;;;;;;;13.37;10.13;;;3.00;99.00;;;;;;5085602;28;20183;-86
2023/01/24 05:29:22;;;;;;;12.80;10.80;;;3.00;99.10;;;;;;5083618;28;20204;-88
2023/01/24 05:31:48;;;;;;;11.20;9.73;;;3.10;98.40;;;;;;5084248;28;20240;-88
2023/01/24 05:34:13;;;;;;;11.47;9.27;;;3.00;98.30;;;;;;5088946;28;20175;-87
2023/01/24 05:36:39;;;;;;;12.57;10.17;;;3.00;98.40;;;;;;5103844;28;20189;-88
2023/01/24 05:39:05;;;;;;;12.23;10.07;;;3.00;98.40;;;;;;5093010;28;20198;-88
2023/01/24 05:41:30;;;;;;;13.17;10.30;;;3.10;98.50;;;;;;5105389;28;20273;-90
2023/01/24 05:43:56;;;;;;;13.73;10.07;;;3.00;98.00;;;;;;5106315;28;20192;-87
2023/01/24 05:46:22;;;;;;;13.53;10.03;;;3.10;98.10;;;;;;5063458;28;20802;-88
2023/01/24 05:48:49;;;;;;;11.47;9.90;;;3.10;98.40;;;;;;5102718;28;20195;-88
2023/01/24 05:51:17;;;;;;;12.33;9.40;;;3.10;98.30;;;;;;5119863;28;20206;-88
2023/01/24 05:53:43;;;;;;;11.47;9.77;;;3.10;98.20;;;;;;5123921;28;20178;-88
2023/01/24 05:56:15;;;;;;;12.73;10.23;;;3.10;98.10;;;;;;5111362;28;20190;-88
2023/01/24 05:58:42;;;;;;;13.07;10.03;;;3.10;98.00;;;;;;5083501;28;20239;-88
2023/01/24 06:01:13;;;;;;;12.50;9.87;;;3.10;98.00;;;;;;5083814;28;20194;-89
2023/01/24 06:03:41;;;;;;;12.33;10.03;;;3.10;97.90;;;;;;5084605;28;20160;-88
2023/01/24 06:06:08;;;;;;;14.23;10.93;;;3.20;97.70;;;;;;5092895;28;20260;-90
2023/01/24 06:08:34;;;;;;;11.83;10.33;;;3.20;97.80;;;;;;5086264;28;20275;-88
2023/01/24 06:11:12;;;;;;;17.40;12.80;;;3.10;97.80;;;;;;5084874;28;20180;-88
2023/01/24 06:13:38;;;;;;;14.53;12.23;;;3.10;97.90;;;;;;5089577;28;20548;-87
2023/01/24 06:16:11;;;;;;;12.70;10.50;;;3.10;98.20;;;;;;5095729;28;20214;-87
2023/01/24 06:18:37;;;;;;;13.10;10.23;;;3.10;97.80;;;;;;5068658;28;20238;-88
2023/01/24 06:21:22;;;;;;;10.83;9.63;;;3.10;98.40;;;;;;5077342;28;20190;-89
2023/01/24 06:23:48;;;;;;;12.90;10.43;;;3.10;98.10;;;;;;5096767;28;20167;-90
2023/01/24 06:26:14;;;;;;;11.43;9.37;;;3.10;98.30;;;;;;5098954;28;20261;-88
2023/01/24 06:28:40;;;;;;;11.63;9.27;;;3.10;97.80;;;;;;5095989;28;20827;-88
2023/01/24 06:31:33;;;;;;;10.90;9.47;;;3.10;98.20;;;;;;5100823;28;21465;-89
2023/01/24 06:34:29;;;;;;;11.90;10.50;;;3.10;98.30;;;;;;5081821;28;20194;-89
2023/01/24 06:37:28;;;;;;;10.57;9.47;;;3.10;98.20;;;;;;5078855;28;20276;-90
2023/01/24 06:39:54;;;;;;;11.67;9.60;;;3.10;97.80;;;;;;5094868;28;20214;-89
2023/01/24 06:42:21;;;;;;;12.90;10.63;;;3.10;98.00;;;;;;5099736;28;20183;-90
2023/01/24 06:44:47;;;;;;;11.10;9.43;;;3.10;98.20;;;;;;5101639;28;20199;-88
2023/01/24 06:47:14;;;;;;;10.87;9.70;;;3.20;97.90;;;;;;5097351;28;20179;-90
2023/01/24 06:49:40;;;;;;;11.03;9.87;;;3.20;97.50;;;;;;5101242;28;20190;-90
2023/01/24 06:52:07;;;;;;;12.53;10.33;;;3.10;97.60;;;;;;5099231;28;20202;-90
2023/01/24 06:54:33;;;;;;;11.37;9.33;;;3.20;97.30;;;;;;5101890;28;20202;-87
2023/01/24 06:56:59;;;;;;;10.93;9.77;;;3.10;97.80;;;;;;5081725;28;20197;-89
2023/01/24 06:59:24;;;;;;;10.90;9.40;;;3.10;97.70;;;;;;5101535;28;20684;-88
2023/01/24 07:01:50;;;;;;;13.20;10.20;;;3.10;97.80;;;;;;5101110;28;20190;-91
2023/01/24 07:04:16;;;;;;;12.40;10.10;;;3.10;98.00;;;;;;5102104;28;20183;-89
2023/01/24 07:06:42;;;;;;;10.13;8.77;;;3.10;97.70;;;;;;5100555;28;20193;-89
2023/01/24 07:09:08;;;;;;;12.43;9.63;;;3.10;97.70;;;;;;5100624;28;21135;-90
2023/01/24 07:11:34;;;;;;;13.37;10.40;;;3.10;98.10;;;;;;5100576;28;20293;-91
2023/01/24 07:14:00;;;;;;;13.93;10.60;;;3.10;98.40;;;;;;5101184;28;20219;-88
2023/01/24 07:16:26;;;;;;;12.60;10.17;;;3.10;97.90;;;;;;5080524;28;20213;-89
2023/01/24 07:18:52;;;;;;;14.43;11.07;;;3.10;98.10;;;;;;5100766;28;20230;-90
2023/01/24 07:21:18;;;;;;;11.67;9.83;;;3.10;98.00;;;;;;5101693;28;20186;-87
2023/01/24 07:23:45;;;;;;;13.07;10.27;;;3.10;98.20;;;;;;5096132;28;20175;-87
2023/01/24 07:26:12;;;;;;;12.53;10.10;;;3.10;97.60;;;;;;5093175;28;20183;-89
2023/01/24 07:28:38;;;;;;;10.80;9.70;;;3.10;97.90;;;;;;5092693;28;20217;-90
2023/01/24 07:31:04;;;;;;;13.70;10.60;;;3.10;97.90;;;;;;5096310;28;20951;-87
2023/01/24 07:33:30;;;;;;;14.40;11.00;;;3.10;98.30;;;;;;5095254;28;20193;-89
2023/01/24 07:35:56;;;;;;;11.43;10.03;;;3.20;98.30;;;;;;5091354;28;20187;-88
2023/01/24 07:38:21;;;;;;;14.03;10.50;;;3.10;98.10;;;;;;5077425;28;20289;-88
2023/01/24 07:40:47;;;;;;;12.57;11.23;;;3.10;98.00;;;;;;5097143;28;20183;-88
2023/01/24 07:43:13;;;;;;;12.47;10.00;;;3.10;97.90;;;;;;5098349;28;20183;-89
2023/01/24 07:45:38;;;;;;;14.30;11.77;;;3.10;98.10;;;;;;5096462;28;20187;-88
2023/01/24 07:48:06;;;;;;;15.60;10.77;;;3.10;98.20;;;;;;5098226;28;20213;-88
2023/01/24 07:50:32;;;;;;;12.97;10.43;;;3.10;98.30;;;;;;5100170;28;20187;-88
2023/01/24 07:52:59;;;;;;;14.70;10.80;;;3.10;98.30;;;;;;5096413;28;20194;-88
2023/01/24 07:55:25;;;;;;;12.17;10.10;;;3.10;98.30;;;;;;5098326;28;20623;-88
2023/01/24 07:57:51;;;;;;;13.67;10.37;;;3.10;98.00;;;;;;5098503;28;20228;-88
2023/01/24 08:00:18;;;;;;;12.40;10.17;;;3.10;98.40;;;;;;5104246;28;20191;-88
2023/01/24 08:02:44;;;;;;;12.93;11.20;;;3.10;98.70;;;;;;5097883;22;20183;-87
2023/01/24 08:05:28;;;;;;;13.77;10.60;;;3.10;98.30;;;;;;5181778;23;20795;-91
2023/01/24 08:08:10;;;;;;;13.57;10.43;;;3.20;98.00;;;;;;5041610;28;20227;-90
2023/01/24 08:10:39;;;;;;;13.30;10.40;;;3.20;98.20;;;;;;5028876;28;20573;-90
2023/01/24 08:13:04;;;;;;;12.83;10.43;;;3.10;98.10;;;;;;5072124;22;20304;-87
2023/01/24 08:15:30;;;;;;;16.07;10.50;;;3.10;98.50;;;;;;5047427;28;20217;-90
2023/01/24 08:17:56;;;;;;;13.70;11.10;;;3.10;98.90;;;;;;5057313;28;20212;-86
2023/01/24 08:20:22;;;;;;;13.87;12.23;;;3.00;99.00;;;;;;5030724;28;20188;-90
2023/01/24 08:22:47;;;;;;;12.47;11.17;;;3.10;99.50;;;;;;5045076;28;20188;-89
2023/01/24 08:25:13;;;;;;;14.47;12.50;;;3.10;99.60;;;;;;5042719;28;20251;-87
2023/01/24 08:27:42;;;;;;;15.47;10.73;;;3.20;99.10;;;;;;5049428;28;20211;-90
2023/01/24 08:30:10;;;;;;;13.33;10.70;;;3.20;98.60;;;;;;5047948;28;20299;-86
2023/01/24 08:32:36;;;;;;;14.13;10.63;;;3.20;98.10;;;;;;5047441;28;20189;-89
2023/01/24 08:35:02;;;;;;;14.60;11.47;;;3.20;98.30;;;;;;5049653;28;20181;-88
2023/01/24 08:37:28;;;;;;;13.67;10.83;;;3.20;98.50;;;;;;5027311;28;20213;-88
2023/01/24 08:39:56;;;;;;;12.90;11.20;;;3.20;98.50;;;;;;5029140;28;20284;-88
2023/01/24 08:42:23;;;;;;;13.90;11.33;;;3.20;98.30;;;;;;5032226;28;20189;-88
2023/01/24 08:44:48;;;;;;;24.63;14.73;;;3.20;98.70;;;;;;5055843;28;20180;-88
2023/01/24 08:47:14;;;;;;;21.07;14.77;;;3.30;98.60;;;;;;5047399;28;20191;-89
2023/01/24 08:49:40;;;;;;;16.73;12.80;;;3.30;98.70;;;;;;5031533;28;20189;-90
2023/01/24 08:52:06;;;;;;;17.50;13.67;;;3.30;98.70;;;;;;5051757;28;20176;-87
2023/01/24 08:54:32;;;;;;;16.90;12.63;;;3.30;98.40;;;;;;5045759;28;20212;-86
2023/01/24 08:56:58;;;;;;;19.43;12.63;;;3.30;98.70;;;;;;5042971;28;20203;-87
2023/01/24 08:59:24;;;;;;;19.63;13.63;;;3.30;99.50;;;;;;5038778;28;20236;-88
2023/01/24 09:01:49;;;;;;;15.27;11.53;;;3.30;98.80;;;;;;5044576;28;20193;-87
2023/01/24 09:04:15;;;;;;;15.53;12.30;;;3.40;98.20;;;;;;5042950;28;20196;-88
2023/01/24 09:06:41;;;;;;;14.07;11.50;;;3.30;98.40;;;;;;5046136;28;20176;-86
2023/01/24 09:09:06;;;;;;;14.03;12.10;;;3.40;98.30;;;;;;5027020;28;20236;-87
2023/01/24 09:11:32;;;;;;;17.00;12.63;;;3.40;98.10;;;;;;5038169;28;20200;-88
2023/01/24 09:13:57;;;;;;;14.10;11.57;;;3.40;97.90;;;;;;5051731;28;20198;-89
2023/01/24 09:16:24;;;;;;;15.40;12.00;;;3.50;98.20;;;;;;5040667;28;20868;-87
2023/01/24 09:18:51;;;;;;;13.20;11.03;;;3.50;97.70;;;;;;5040964;28;20205;-88
2023/01/24 09:21:17;;;;;;;12.97;11.57;;;3.40;97.20;;;;;;5045291;28;21358;-88
2023/01/24 09:23:43;;;;;;;13.77;11.37;;;3.50;97.60;;;;;;5044517;28;20311;-88
2023/01/24 09:26:09;;;;;;;13.13;11.37;;;3.60;97.30;;;;;;5040942;28;20686;-87
2023/01/24 09:28:34;;;;;;;15.07;11.40;;;3.60;97.30;;;;;;5038631;28;20211;-87
2023/01/24 09:31:01;;;;;;;12.90;10.80;;;3.60;96.70;;;;;;5044751;28;20188;-87
2023/01/24 09:33:27;;;;;;;12.37;11.03;;;3.60;97.00;;;;;;5043407;28;20196;-88
2023/01/24 09:35:55;;;;;;;13.33;11.27;;;3.60;96.70;;;;;;5039999;28;20193;-86
2023/01/24 09:38:22;;;;;;;15.80;11.63;;;3.60;96.20;;;;;;5032212;28;20303;-88
2023/01/24 09:40:54;;;;;;;14.47;11.27;;;3.60;97.10;;;;;;5029968;28;20177;-88
2023/01/24 09:43:48;;;;;;;13.53;11.13;;;3.60;97.10;;;;;;5040851;28;20185;-89
2023/01/24 09:46:28;;;;;;;15.30;11.53;;;3.60;96.80;;;;;;5045245;28;20165;-89
2023/01/24 09:49:40;;;;;;;12.10;10.70;;;3.60;96.60;;;;;;5048582;28;20385;-89
2023/01/24 09:52:12;;;;;;;15.03;11.07;;;3.60;96.70;;;;;;4953847;28;20237;-89
2023/01/24 09:54:51;;;;;;;12.97;10.93;;;3.70;96.40;;;;;;5044839;28;20189;-87
2023/01/24 09:57:58;;;;;;;13.30;10.90;;;3.70;96.40;;;;;;5053715;28;20163;-91
2023/01/24 10:00:30;;;;;;;13.30;11.33;;;3.60;96.40;;;;;;4964310;28;20211;-89
2023/01/24 10:02:58;;;;;;;11.53;9.80;;;3.70;96.30;;;;;;5044576;28;20255;-90
2023/01/24 10:05:38;;;;;;;12.43;10.57;;;3.80;95.70;;;;;;5047497;28;20221;-89
2023/01/24 10:08:35;;;;;;;12.70;10.73;;;3.80;95.20;;;;;;5044569;28;20231;-87
2023/01/24 10:11:16;;;;;;;11.53;10.33;;;3.80;95.80;;;;;;5027795;28;21015;-88
2023/01/24 10:14:07;;;;;;;12.30;10.87;;;3.80;96.00;;;;;;5047502;28;20197;-89
2023/01/24 10:17:20;;;;;;;12.83;10.70;;;3.80;95.50;;;;;;5039935;28;20300;-90
2023/01/24 10:19:48;;;;;;;12.77;9.93;;;3.80;96.50;;;;;;4950325;28;20254;-88
2023/01/24 10:22:43;;;;;;;13.97;11.27;;;3.90;95.30;;;;;;5053447;28;20208;-89
2023/01/24 10:25:20;;;;;;;12.27;10.37;;;3.80;94.90;;;;;;5051665;28;20215;-88
2023/01/24 10:27:49;;;;;;;13.60;11.07;;;3.90;95.20;;;;;;5043505;28;20200;-90
2023/01/24 10:30:20;;;;;;;15.30;10.63;;;3.80;95.50;;;;;;5050596;28;20227;-90
2023/01/24 10:32:50;;;;;;;12.80;10.67;;;3.90;95.10;;;;;;5037792;28;20304;-87
2023/01/24 10:35:30;;;;;;;13.87;10.93;;;3.90;95.10;;;;;;5034290;28;20196;-87
2023/01/24 10:38:00;;;;;;;15.27;11.20;;;4.00;94.80;;;;;;5042174;28;20212;-87
2023/01/24 10:40:25;;;;;;;12.17;10.10;;;4.00;94.10;;;;;;5047695;28;20199;-88
2023/01/24 10:42:51;;;;;;;13.10;10.20;;;3.90;94.80;;;;;;5022715;28;20558;-89
2023/01/24 10:45:45;;;;;;;12.20;10.30;;;3.90;94.70;;;;;;5042994;28;20223;-89
2023/01/24 10:48:23;;;;;;;13.07;10.23;;;4.00;94.40;;;;;;5033251;28;20315;-89
2023/01/24 10:50:49;;;;;;;12.00;10.70;;;4.00;94.30;;;;;;5040869;28;20199;-87
2023/01/24 10:53:25;;;;;;;12.30;11.10;;;4.00;94.50;;;;;;5045025;28;20188;-89
2023/01/24 10:56:02;;;;;;;15.13;10.90;;;4.00;95.20;;;;;;5039019;28;20417;-87
2023/01/24 10:58:32;;;;;;;13.53;10.27;;;4.00;94.90;;;;;;5043669;28;20223;-88
2023/01/24 11:01:14;;;;;;;12.57;10.97;;;4.10;93.80;;;;;;5044367;28;20181;-90
2023/01/24 11:03:40;;;;;;;13.93;11.23;;;4.10;94.40;;;;;;5037648;28;20184;-89
2023/01/24 11:06:33;;;;;;;14.27;10.37;;;4.10;94.60;;;;;;5049163;28;20690;-88
2023/01/24 11:09:20;;;;;;;14.67;10.47;;;4.20;94.20;;;;;;5053679;28;20211;-88
2023/01/24 11:11:50;;;;;;;10.73;9.63;;;4.20;94.40;;;;;;5046711;28;20215;-90
2023/01/24 11:14:20;;;;;;;12.00;10.70;;;4.20;93.40;;;;;;5053902;28;20423;-90
2023/01/24 11:16:48;;;;;;;11.83;10.20;;;4.30;93.60;;;;;;5053062;28;20248;-89
2023/01/24 11:19:30;;;;;;;11.50;10.17;;;4.30;93.50;;;;;;5028979;28;20240;-88
2023/01/24 11:22:19;;;;;;;13.30;10.07;;;4.40;92.80;;;;;;5049653;28;20185;-88
2023/01/24 11:24:45;;;;;;;13.70;11.27;;;4.30;93.50;;;;;;5050825;28;20189;-87
2023/01/24 11:27:20;;;;;;;13.47;9.97;;;4.40;93.30;;;;;;5053996;28;20395;-89
2023/01/24 11:30:18;;;;;;;12.40;10.20;;;4.40;93.30;;;;;;5043679;28;20434;-90
2023/01/24 11:32:58;;;;;;;11.23;9.33;;;4.40;93.00;;;;;;5044308;28;20244;-89
2023/01/24 11:35:36;;;;;;;11.87;9.77;;;4.50;93.40;;;;;;5053083;28;20192;-87
2023/01/24 11:38:16;;;;;;;10.90;9.20;;;4.40;92.70;;;;;;5031361;28;20204;-87
2023/01/24 11:41:08;;;;;;;11.90;9.63;;;4.40;92.50;;;;;;5040176;28;20174;-88
2023/01/24 11:43:55;;;;;;;12.90;9.23;;;4.30;92.60;;;;;;5043636;28;20199;-88
2023/01/24 11:46:41;;;;;;;10.90;9.33;;;4.40;92.50;;;;;;5046016;28;20181;-87
2023/01/24 11:49:30;;;;;;;11.07;9.70;;;4.30;92.90;;;;;;5051318;28;20222;-89
2023/01/24 11:51:58;;;;;;;11.20;9.03;;;4.30;93.20;;;;;;5051149;28;20176;-89
2023/01/24 11:54:36;;;;;;;13.30;9.27;;;4.30;93.40;;;;;;5047909;28;20189;-87
2023/01/24 11:57:34;;;;;;;11.00;9.23;;;4.20;93.50;;;;;;5049050;28;20208;-89
2023/01/24 12:00:14;;;;;;;10.03;8.53;;;4.20;93.70;;;;;;5037104;28;20641;-90
2023/01/24 12:03:27;;;;;;;11.80;9.03;;;4.20;94.20;;;;;;5037889;28;20173;-88
2023/01/24 12:06:28;;;;;;;11.33;9.20;;;4.20;94.00;;;;;;4953969;28;20227;-89
2023/01/24 12:09:15;;;;;;;9.50;8.30;;;4.20;93.70;;;;;;4959277;28;20282;-88
2023/01/24 12:11:50;;;;;;;10.97;9.03;;;4.20;93.80;;;;;;5032945;28;20204;-87
2023/01/24 12:14:41;;;;;;;10.20;9.10;;;4.20;94.10;;;;;;5049052;28;20593;-90
2023/01/24 12:17:34;;;;;;;10.93;9.03;;;4.20;93.90;;;;;;5045588;28;20188;-87
2023/01/24 12:20:25;;;;;;;11.23;8.60;;;4.20;94.00;;;;;;5048573;28;20208;-88
2023/01/24 12:22:53;;;;;;;10.90;9.30;;;4.20;94.50;;;;;;5041495;28;20203;-88
2023/01/24 12:25:31;;;;;;;11.10;8.60;;;4.20;94.40;;;;;;5046325;28;20198;-90
2023/01/24 12:28:01;;;;;;;10.67;9.07;;;4.20;94.80;;;;;;5046443;28;20212;-88
2023/01/24 12:30:44;;;;;;;12.27;9.53;;;4.20;95.10;;;;;;5049447;28;20188;-90
2023/01/24 12:33:23;;;;;;;10.63;8.90;;;4.20;94.60;;;;;;5040651;28;20520;-87
2023/01/24 12:35:58;;;;;;;9.83;8.83;;;4.20;94.40;;;;;;5042602;28;20184;-89
2023/01/24 12:38:27;;;;;;;12.17;9.53;;;4.20;94.80;;;;;;5049662;28;20272;-89
2023/01/24 12:41:15;;;;;;;11.03;8.77;;;4.20;94.00;;;;;;5048615;28;20285;-87
2023/01/24 12:43:51;;;;;;;9.97;8.77;;;4.30;94.00;;;;;;5020856;28;20193;-88
2023/01/24 12:46:37;;;;;;;12.03;9.00;;;4.20;94.30;;;;;;5040220;28;20188;-90
2023/01/24 12:49:31;;;;;;;10.30;8.77;;;4.30;93.90;;;;;;5037261;28;20212;-88
2023/01/24 12:52:24;;;;;;;12.13;8.97;;;4.30;94.10;;;;;;5039165;28;20946;-89
2023/01/24 12:54:56;;;;;;;11.27;9.17;;;4.30;94.30;;;;;;5020825;28;20200;-91
2023/01/24 12:57:40;;;;;;;10.00;8.40;;;4.30;94.00;;;;;;5039595;28;20184;-87
2023/01/24 13:00:16;;;;;;;10.70;9.60;;;4.30;94.00;;;;;;5039985;28;20303;-88
2023/01/24 13:02:46;;;;;;;11.87;9.07;;;4.20;94.40;;;;;;5018329;28;20176;-89
2023/01/24 13:05:21;;;;;;;12.20;8.67;;;4.30;94.30;;;;;;5033169;28;20263;-86
2023/01/24 13:07:53;;;;;;;9.57;8.27;;;4.30;95.00;;;;;;5033579;28;20195;-90
2023/01/24 13:10:25;;;;;;;10.53;8.53;;;4.40;94.10;;;;;;5046457;28;20184;-89
2023/01/24 13:12:52;;;;;;;11.60;9.57;;;4.40;93.70;;;;;;5044529;28;20260;-87
2023/01/24 13:15:23;;;;;;;12.57;9.13;;;4.50;93.20;;;;;;5042387;28;20184;-87
2023/01/24 13:18:22;;;;;;;11.87;9.17;;;4.50;93.70;;;;;;5030081;28;20581;-88
2023/01/24 13:21:07;;;;;;;10.50;9.07;;;4.50;93.10;;;;;;5036152;28;20265;-89
2023/01/24 13:23:46;;;;;;;10.67;8.97;;;4.50;92.80;;;;;;5045117;28;20208;-89
2023/01/24 13:26:26;;;;;;;11.07;9.23;;;4.40;93.20;;;;;;5044632;28;20173;-87
2023/01/24 13:29:03;;;;;;;13.70;10.33;;;4.40;93.40;;;;;;5040621;28;20201;-91
2023/01/24 13:31:49;;;;;;;11.00;9.33;;;4.40;93.80;;;;;;5021200;28;20258;-88
2023/01/24 13:34:19;;;;;;;10.83;9.03;;;4.30;94.00;;;;;;5041871;28;20203;-88
2023/01/24 13:36:51;;;;;;;12.60;8.97;;;4.30;93.90;;;;;;5036939;28;20204;-89
2023/01/24 13:39:32;;;;;;;12.77;9.60;;;4.40;94.10;;;;;;5045491;28;21686;-87
2023/01/24 13:42:18;;;;;;;11.37;8.80;;;4.30;94.00;;;;;;5047284;28;20188;-90
2023/01/24 13:44:44;;;;;;;11.87;9.53;;;4.40;93.90;;;;;;5038548;28;20227;-88
2023/01/24 13:47:10;;;;;;;12.20;9.47;;;4.30;93.80;;;;;;5036144;28;20181;-89
2023/01/24 13:49:49;;;;;;;10.03;8.33;;;4.20;93.70;;;;;;5036561;28;20196;-87
2023/01/24 13:52:37;;;;;;;11.87;9.40;;;4.20;94.20;;;;;;5039843;28;20249;-87
2023/01/24 13:55:22;;;;;;;12.87;9.50;;;4.30;94.30;;;;;;5047554;28;20184;-87
2023/01/24 13:58:06;;;;;;;11.27;8.30;;;4.20;94.00;;;;;;5037456;28;20220;-89
2023/01/24 14:00:53;;;;;;;10.07;8.53;;;4.20;94.40;;;;;;5042586;28;20192;-87
2023/01/24 14:03:33;;;;;;;12.27;9.87;;;4.20;94.70;;;;;;5042657;28;20206;-88
2023/01/24 14:06:01;;;;;;;11.20;10.00;;;4.20;94.80;;;;;;5042583;28;20172;-90
2023/01/24 14:08:27;;;;;;;11.83;9.03;;;4.30;93.70;;;;;;5062013;28;20242;-89
2023/01/24 14:11:05;;;;;;;10.33;8.87;;;4.30;93.60;;;;;;5060296;28;20169;-90